North Battleford Airport
CYQW : now visible

Airfield :











YOU CAN JOIN US ON...

 
LOGIN :

Register | Disclaimer

   EN    FR    IT 

 









Legend :    VFR   Marginal VFR   IFR   Intensive IFR   Very Intensive IFR
Visi :
Ceiling :
>= 8 km
>= 3000ft
5 to 8 km
1000 to 3000 ft
1500m to 5 km
500 to 1000 ft
800 to 1500m
200 to 500 ft
< 800m
< 200 ft
Symbols :   Thunderstorms  Fog  Heavy snow  Heavy precipitations  Wind > 20 kt






- Airport Elevation : 1799 ft
- IATA code : YQW


CYQW - North Battleford

CURRENT METAR :
  • 291600Z AUTO 13004KT 100V160 9SM SCT130 BKN150 13/05 A3028 RMK SLP269

EXPIRED METARs :
  • 291500Z AUTO 09006KT 9SM BKN130 BKN150 12/05 A3029 RMK SLP270
  • 291400Z AUTO 07005KT 9SM CLR 11/05 A3029 RMK SLP270

TAF TAF CYQW
Valid from the 29 at 12:00 until the 30 at 00:00 UTC


291144Z 2912/2924 09005KT P6SM BKN100
FM291800 12010KT P6SM BKN080 RMK FCST BASED ON AUTO OBS. NXT FCST BY 291800Z
CZWG FIR / North America



MET'MAP, your aeronautical weather chart ! - Copyright ORBIFLY December 2007 - Disclaimer

ORBIFLY MET'MAP TEAM :

Programming & Development : Alexandra Zaïnal
Concept & original design : Baudouin d'Aumeries
Assistance for programming : Marc-Olivier Méhu
Technical & hardware support : Manuel Goepfert

Contact : metmap@orbifly.com




SOURCES & CREDITS :

   NOAA       Earth
Advisory